Time;durP1;ratioP1;P1;durP2;ratioP2;P2;SDS_P1;SDS_P2;PMS_P1;PMS_P2;Temp;Humidity;BMP_temperature;BMP_pressure;BME280_temperature;BME280_humidity;BME280_pressure;Samples;Min_cycle;Max_cycle;Signal;HPM_P1;HPM_P2
2022/08/27 00:01:22;;;;;;;9.52;2.28;;;;;;;;;;5096070;28;20125;-82
2022/08/27 00:03:48;;;;;;;5.88;2.10;;;;;;;;;;5096124;28;20032;-82
2022/08/27 00:06:16;;;;;;;9.02;2.20;;;;;;;;;;5095906;28;20024;-82
2022/08/27 00:08:42;;;;;;;8.70;2.38;;;;;;;;;;5095815;28;20032;-82
2022/08/27 00:11:09;;;;;;;5.28;1.98;;;;;;;;;;5077257;28;20032;-81
2022/08/27 00:13:35;;;;;;;6.35;2.30;;;;;;;;;;5077406;28;20020;-82
2022/08/27 00:16:02;;;;;;;8.98;2.53;;;;;;;;;;5096970;28;20036;-82
2022/08/27 00:18:28;;;;;;;8.32;2.58;;;;;;;;;;5077524;28;20351;-81
2022/08/27 00:20:54;;;;;;;6.45;2.00;;;;;;;;;;5095544;28;20501;-81
2022/08/27 00:23:20;;;;;;;10.85;3.42;;;;;;;;;;5084989;28;20365;-81
2022/08/27 00:25:46;;;;;;;6.18;2.35;;;;;;;;;;5097507;28;20357;-81
2022/08/27 00:28:13;;;;;;;8.82;2.40;;;;;;;;;;5097460;28;20046;-82
2022/08/27 00:30:39;;;;;;;6.75;2.30;;;;;;;;;;5116057;28;20026;-82
2022/08/27 00:33:05;;;;;;;9.60;2.22;;;;;;;;;;5097623;28;20035;-82
2022/08/27 00:35:31;;;;;;;7.10;1.95;;;;;;;;;;5115780;28;20028;-81
2022/08/27 00:37:57;;;;;;;4.82;1.92;;;;;;;;;;5097346;28;20019;-82
2022/08/27 00:40:23;;;;;;;6.18;2.33;;;;;;;;;;5115481;28;20106;-81
2022/08/27 00:42:49;;;;;;;3.78;2.17;;;;;;;;;;5097029;28;20123;-82
2022/08/27 00:45:17;;;;;;;4.28;1.77;;;;;;;;;;5096515;28;20095;-81
2022/08/27 00:47:46;;;;;;;8.25;2.30;;;;;;;;;;5096975;28;20031;-82
2022/08/27 00:50:14;;;;;;;7.78;2.22;;;;;;;;;;5097207;28;20024;-82
2022/08/27 00:52:53;;;;;;;5.95;2.50;;;;;;;;;;5115602;28;20470;-81
2022/08/27 00:55:29;;;;;;;6.90;2.97;;;;;;;;;;5096678;28;20024;-82
2022/08/27 00:58:22;;;;;;;5.30;2.40;;;;;;;;;;5096969;28;20097;-82
2022/08/27 01:00:48;;;;;;;8.40;2.88;;;;;;;;;;5113150;28;20039;-82
2022/08/27 01:03:14;;;;;;;9.23;3.22;;;;;;;;;;5097051;28;20119;-82
2022/08/27 01:05:42;;;;;;;6.45;2.78;;;;;;;;;;5108766;28;20077;-82
2022/08/27 01:08:13;;;;;;;8.23;3.20;;;;;;;;;;5114344;28;20024;-82
2022/08/27 01:10:40;;;;;;;11.80;3.20;;;;;;;;;;5104163;28;20630;-81
2022/08/27 01:13:07;;;;;;;7.40;3.42;;;;;;;;;;5107723;28;20031;-81
2022/08/27 01:15:33;;;;;;;6.95;3.13;;;;;;;;;;5114932;28;20029;-82
2022/08/27 01:18:02;;;;;;;6.88;3.17;;;;;;;;;;5102957;28;20028;-81
2022/08/27 01:20:29;;;;;;;5.72;2.95;;;;;;;;;;5093484;28;20024;-81
2022/08/27 01:23:01;;;;;;;7.45;3.05;;;;;;;;;;5093164;28;20028;-81
2022/08/27 01:25:28;;;;;;;8.77;3.25;;;;;;;;;;5076682;28;20138;-81
2022/08/27 01:27:57;;;;;;;8.25;3.50;;;;;;;;;;5093260;28;20064;-82
2022/08/27 01:30:23;;;;;;;9.52;3.53;;;;;;;;;;5094741;28;20451;-81
2022/08/27 01:32:50;;;;;;;8.13;3.17;;;;;;;;;;5092670;28;20474;-82
2022/08/27 01:35:17;;;;;;;10.55;3.72;;;;;;;;;;5094651;28;20028;-81
2022/08/27 01:37:45;;;;;;;9.27;3.45;;;;;;;;;;5092700;28;20020;-81
2022/08/27 01:40:12;;;;;;;6.30;3.58;;;;;;;;;;5094116;28;20099;-81
2022/08/27 01:42:39;;;;;;;14.05;4.28;;;;;;;;;;5092372;28;20024;-81
2022/08/27 01:45:10;;;;;;;11.38;3.80;;;;;;;;;;5093591;28;20024;-81
2022/08/27 01:47:36;;;;;;;13.68;4.05;;;;;;;;;;5089568;28;20019;-81
2022/08/27 01:50:11;;;;;;;7.00;3.47;;;;;;;;;;5114116;28;20134;-81
2022/08/27 01:52:37;;;;;;;7.68;3.20;;;;;;;;;;5096112;28;20034;-81
2022/08/27 01:55:04;;;;;;;5.03;3.50;;;;;;;;;;5095730;28;20020;-81
2022/08/27 01:57:31;;;;;;;7.85;4.10;;;;;;;;;;5112949;28;20051;-81
2022/08/27 01:59:57;;;;;;;5.97;4.15;;;;;;;;;;5095373;28;20024;-82
2022/08/27 02:02:23;;;;;;;7.57;4.03;;;;;;;;;;5113930;28;20055;-81
2022/08/27 02:04:50;;;;;;;15.65;4.30;;;;;;;;;;5095645;28;20023;-82
2022/08/27 02:07:16;;;;;;;10.80;4.13;;;;;;;;;;5095599;28;20118;-82
2022/08/27 02:09:42;;;;;;;11.13;4.05;;;;;;;;;;5095572;28;20055;-81
2022/08/27 02:12:09;;;;;;;9.57;4.07;;;;;;;;;;5113726;28;20027;-81
2022/08/27 02:14:35;;;;;;;7.88;4.35;;;;;;;;;;5095699;28;20046;-81
2022/08/27 02:17:01;;;;;;;9.68;4.00;;;;;;;;;;5113595;28;20469;-81
2022/08/27 02:19:28;;;;;;;9.30;4.03;;;;;;;;;;5095487;28;20034;-82
2022/08/27 02:21:58;;;;;;;12.23;4.20;;;;;;;;;;5095494;28;20376;-82
2022/08/27 02:24:25;;;;;;;12.73;4.28;;;;;;;;;;5078512;28;20024;-82
2022/08/27 02:26:51;;;;;;;8.02;4.13;;;;;;;;;;5093090;28;20500;-82
2022/08/27 02:29:17;;;;;;;7.82;3.92;;;;;;;;;;5074874;28;20829;-81
2022/08/27 02:31:43;;;;;;;13.80;4.20;;;;;;;;;;5093074;28;20024;-82
2022/08/27 02:34:09;;;;;;;13.70;4.18;;;;;;;;;;5074694;28;20390;-82
2022/08/27 02:36:36;;;;;;;8.05;4.00;;;;;;;;;;5074862;28;20020;-82
2022/08/27 02:39:02;;;;;;;9.05;4.68;;;;;;;;;;5074648;28;20020;-82
2022/08/27 02:41:30;;;;;;;10.30;3.95;;;;;;;;;;5074637;28;20482;-82
2022/08/27 02:43:56;;;;;;;7.22;4.47;;;;;;;;;;5093001;28;20139;-81
2022/08/27 02:46:22;;;;;;;10.13;4.00;;;;;;;;;;5074578;28;20024;-82
2022/08/27 02:48:48;;;;;;;8.25;4.30;;;;;;;;;;5074650;28;20055;-82
2022/08/27 02:51:14;;;;;;;11.98;4.60;;;;;;;;;;5074543;28;20023;-82
2022/08/27 02:53:42;;;;;;;8.00;5.10;;;;;;;;;;5092654;28;20385;-82
2022/08/27 02:56:09;;;;;;;11.48;4.43;;;;;;;;;;5074203;28;20088;-82
2022/08/27 02:58:35;;;;;;;11.00;5.15;;;;;;;;;;5074282;28;20020;-82
2022/08/27 03:01:02;;;;;;;8.93;4.45;;;;;;;;;;5092601;28;20047;-81
2022/08/27 03:03:28;;;;;;;7.10;3.95;;;;;;;;;;5074378;28;20024;-81
2022/08/27 03:05:55;;;;;;;7.20;3.70;;;;;;;;;;5074392;28;20463;-82
2022/08/27 03:08:22;;;;;;;10.73;4.13;;;;;;;;;;5112969;28;20055;-82
2022/08/27 03:10:49;;;;;;;12.00;4.40;;;;;;;;;;5099024;28;20028;-82
2022/08/27 03:13:15;;;;;;;8.95;4.30;;;;;;;;;;5103549;28;20157;-82
2022/08/27 03:15:41;;;;;;;7.65;4.28;;;;;;;;;;5077778;28;20032;-81
2022/08/27 03:18:20;;;;;;;7.85;4.18;;;;;;;;;;5077986;28;20020;-82
2022/08/27 03:20:52;;;;;;;7.40;3.70;;;;;;;;;;5096052;28;20040;-81
2022/08/27 03:23:21;;;;;;;9.60;4.03;;;;;;;;;;5077495;28;20040;-82
2022/08/27 03:25:52;;;;;;;10.07;4.22;;;;;;;;;;5096177;28;20028;-82
2022/08/27 03:28:19;;;;;;;9.43;4.40;;;;;;;;;;5077791;28;20032;-81
2022/08/27 03:30:47;;;;;;;12.80;4.50;;;;;;;;;;5098025;28;20464;-82
2022/08/27 03:33:13;;;;;;;13.02;5.05;;;;;;;;;;5097036;28;20048;-81
2022/08/27 03:35:39;;;;;;;9.93;4.30;;;;;;;;;;5080286;28;20119;-84
2022/08/27 03:38:05;;;;;;;8.27;4.57;;;;;;;;;;5108634;28;20028;-83
2022/08/27 03:40:32;;;;;;;9.40;4.80;;;;;;;;;;5103780;28;20022;-84
2022/08/27 03:42:58;;;;;;;11.02;5.30;;;;;;;;;;5117479;28;20019;-84
2022/08/27 03:45:26;;;;;;;9.60;4.53;;;;;;;;;;5117587;28;20381;-84
2022/08/27 03:47:52;;;;;;;10.77;5.95;;;;;;;;;;5113017;28;20030;-84
2022/08/27 03:50:18;;;;;;;8.40;4.43;;;;;;;;;;5116964;28;20393;-84
2022/08/27 03:52:44;;;;;;;8.48;4.90;;;;;;;;;;5117589;28;20504;-84
2022/08/27 03:55:10;;;;;;;10.10;4.47;;;;;;;;;;5116696;28;20376;-84
2022/08/27 03:57:36;;;;;;;9.40;4.38;;;;;;;;;;5115057;28;20377;-84
2022/08/27 04:00:03;;;;;;;7.97;4.43;;;;;;;;;;5115425;28;20023;-83
2022/08/27 04:02:30;;;;;;;9.90;5.45;;;;;;;;;;5095916;28;20027;-84
2022/08/27 04:04:56;;;;;;;9.77;4.65;;;;;;;;;;5096068;28;20044;-84
2022/08/27 04:07:22;;;;;;;11.65;5.03;;;;;;;;;;5077735;28;20032;-84
2022/08/27 04:09:48;;;;;;;10.02;4.93;;;;;;;;;;5094525;28;20020;-85
2022/08/27 04:12:14;;;;;;;9.32;5.32;;;;;;;;;;5077725;28;20028;-85
2022/08/27 04:14:40;;;;;;;10.80;5.20;;;;;;;;;;5095604;28;20473;-85
2022/08/27 04:17:06;;;;;;;6.70;3.97;;;;;;;;;;5076186;28;20032;-85
2022/08/27 04:19:33;;;;;;;8.38;4.55;;;;;;;;;;5074217;28;20374;-85
2022/08/27 04:22:01;;;;;;;10.07;4.38;;;;;;;;;;5075381;28;20024;-85
2022/08/27 04:24:28;;;;;;;9.48;4.47;;;;;;;;;;5091932;28;20020;-85
2022/08/27 04:26:54;;;;;;;10.02;4.10;;;;;;;;;;5077296;28;20067;-85
2022/08/27 04:29:20;;;;;;;11.90;4.63;;;;;;;;;;5095398;28;20024;-85
2022/08/27 04:31:46;;;;;;;13.75;4.40;;;;;;;;;;5095445;28;20445;-85
2022/08/27 04:34:12;;;;;;;6.72;4.15;;;;;;;;;;5095499;28;20032;-85
2022/08/27 04:36:38;;;;;;;7.65;3.80;;;;;;;;;;5095284;28;20465;-85
2022/08/27 04:39:04;;;;;;;8.68;4.55;;;;;;;;;;5095423;28;20020;-85
2022/08/27 04:41:32;;;;;;;8.52;4.15;;;;;;;;;;5095257;28;20016;-86
2022/08/27 04:44:02;;;;;;;8.25;4.57;;;;;;;;;;5094889;28;20497;-85
2022/08/27 04:46:29;;;;;;;11.50;4.20;;;;;;;;;;5094641;28;20051;-85
2022/08/27 04:48:56;;;;;;;8.73;4.25;;;;;;;;;;5094744;28;20447;-85
2022/08/27 04:51:22;;;;;;;8.70;4.05;;;;;;;;;;5076279;28;20061;-85
2022/08/27 04:53:49;;;;;;;10.82;4.13;;;;;;;;;;5094648;28;20051;-85
2022/08/27 04:56:16;;;;;;;7.13;3.50;;;;;;;;;;5076144;28;20032;-86
2022/08/27 04:58:42;;;;;;;11.10;4.10;;;;;;;;;;5095631;28;20024;-85
2022/08/27 05:01:08;;;;;;;14.45;4.20;;;;;;;;;;5096469;28;20891;-85
2022/08/27 05:03:35;;;;;;;10.52;4.35;;;;;;;;;;5115420;28;20178;-85
2022/08/27 05:06:02;;;;;;;11.68;3.90;;;;;;;;;;5096757;28;20024;-85
2022/08/27 05:08:29;;;;;;;11.38;4.00;;;;;;;;;;5115120;28;20026;-85
2022/08/27 05:10:55;;;;;;;5.53;3.40;;;;;;;;;;5115111;28;20034;-85
2022/08/27 05:13:25;;;;;;;10.07;3.75;;;;;;;;;;5100716;28;20023;-85
2022/08/27 05:15:58;;;;;;;8.20;3.58;;;;;;;;;;5094435;28;20025;-85
2022/08/27 05:18:24;;;;;;;9.52;3.70;;;;;;;;;;5094600;28;20031;-85
2022/08/27 05:20:50;;;;;;;6.72;4.10;;;;;;;;;;5094654;28;20016;-85
2022/08/27 05:23:17;;;;;;;6.72;3.75;;;;;;;;;;5094418;28;20043;-85
2022/08/27 05:25:44;;;;;;;5.32;3.67;;;;;;;;;;5103294;28;20051;-85
2022/08/27 05:28:12;;;;;;;9.07;4.50;;;;;;;;;;5096208;28;20023;-85
2022/08/27 05:30:39;;;;;;;11.57;4.40;;;;;;;;;;5095770;28;20035;-85
2022/08/27 05:33:06;;;;;;;9.85;4.13;;;;;;;;;;5114916;28;20502;-85
2022/08/27 05:35:32;;;;;;;10.10;4.07;;;;;;;;;;5104506;28;20420;-85
2022/08/27 05:38:01;;;;;;;9.20;4.18;;;;;;;;;;5107652;28;20031;-85
2022/08/27 05:40:27;;;;;;;11.65;3.85;;;;;;;;;;5079165;28;20183;-85
2022/08/27 05:42:54;;;;;;;10.77;4.80;;;;;;;;;;5103872;28;20023;-85
2022/08/27 05:45:20;;;;;;;17.27;3.92;;;;;;;;;;5075514;28;20028;-85
2022/08/27 05:47:46;;;;;;;12.82;4.50;;;;;;;;;;5093789;28;20115;-86
2022/08/27 05:50:12;;;;;;;8.68;4.30;;;;;;;;;;5093772;28;20031;-86
2022/08/27 05:52:38;;;;;;;9.43;4.05;;;;;;;;;;5093621;28;20401;-86
2022/08/27 05:55:04;;;;;;;8.80;4.10;;;;;;;;;;5075420;28;20034;-86
2022/08/27 05:57:30;;;;;;;6.35;4.03;;;;;;;;;;5093429;28;20099;-85
2022/08/27 06:02:42;;;;;;;7.10;4.07;;;;;;;;;;5093614;28;20106;-85
2022/08/27 06:05:08;;;;;;;6.85;4.10;;;;;;;;;;5075070;28;20032;-85
2022/08/27 06:07:34;;;;;;;8.48;4.32;;;;;;;;;;5075070;28;20077;-85
2022/08/27 06:10:00;;;;;;;8.63;3.90;;;;;;;;;;5093316;28;20168;-85
2022/08/27 06:12:27;;;;;;;7.20;4.63;;;;;;;;;;5075015;28;20124;-85
2022/08/27 06:14:53;;;;;;;13.43;5.55;;;;;;;;;;5093133;28;20050;-85
2022/08/27 06:17:19;;;;;;;8.80;3.70;;;;;;;;;;5093092;28;20054;-85
2022/08/27 06:19:45;;;;;;;10.10;4.43;;;;;;;;;;5074462;28;20075;-85
2022/08/27 06:22:11;;;;;;;11.77;4.07;;;;;;;;;;5092485;28;20056;-85
2022/08/27 06:24:38;;;;;;;7.35;4.20;;;;;;;;;;5092477;28;20028;-85
2022/08/27 06:27:04;;;;;;;10.48;4.57;;;;;;;;;;5074258;28;20528;-85
2022/08/27 06:29:33;;;;;;;7.38;4.28;;;;;;;;;;5092870;28;20031;-85
2022/08/27 06:31:59;;;;;;;8.65;4.03;;;;;;;;;;5092817;28;20024;-85
2022/08/27 06:34:25;;;;;;;8.77;4.00;;;;;;;;;;5093305;28;20059;-85
2022/08/27 06:36:53;;;;;;;6.45;3.97;;;;;;;;;;5074571;28;20419;-85
2022/08/27 06:39:19;;;;;;;14.57;4.63;;;;;;;;;;5074998;28;20024;-85
2022/08/27 06:41:45;;;;;;;8.57;4.35;;;;;;;;;;5092944;28;20127;-88
2022/08/27 06:44:12;;;;;;;10.57;4.03;;;;;;;;;;5092203;28;20024;-85
2022/08/27 06:46:38;;;;;;;11.55;4.18;;;;;;;;;;5086788;28;20035;-85
2022/08/27 06:49:04;;;;;;;9.13;4.10;;;;;;;;;;5074281;28;20386;-86
2022/08/27 06:51:32;;;;;;;9.82;4.25;;;;;;;;;;5092655;28;20127;-85
2022/08/27 06:53:59;;;;;;;15.45;4.38;;;;;;;;;;5092548;28;20065;-85
2022/08/27 06:56:25;;;;;;;10.13;3.97;;;;;;;;;;5092511;28;20031;-85
2022/08/27 06:58:55;;;;;;;5.97;3.50;;;;;;;;;;5092317;28;20416;-85
2022/08/27 07:01:22;;;;;;;7.78;3.88;;;;;;;;;;5116319;27;20466;-85
2022/08/27 07:03:49;;;;;;;18.55;3.80;;;;;;;;;;5119855;27;20031;-85
2022/08/27 07:06:15;;;;;;;5.47;3.20;;;;;;;;;;5120669;27;20055;-85
2022/08/27 07:08:42;;;;;;;7.60;3.55;;;;;;;;;;5111122;28;20019;-85
2022/08/27 07:11:09;;;;;;;8.43;3.13;;;;;;;;;;5127951;28;20103;-85
2022/08/27 07:13:35;;;;;;;10.23;2.85;;;;;;;;;;5121133;28;20127;-85
2022/08/27 07:16:21;;;;;;;6.47;2.95;;;;;;;;;;5129830;28;20032;-85
2022/08/27 07:18:49;;;;;;;5.28;2.72;;;;;;;;;;5099387;28;20019;-85
2022/08/27 07:21:15;;;;;;;5.25;2.65;;;;;;;;;;5128565;28;20309;-78
2022/08/27 07:23:41;;;;;;;8.60;2.92;;;;;;;;;;5117141;28;20080;-79
2022/08/27 07:26:08;;;;;;;7.18;2.35;;;;;;;;;;5127006;28;20024;-81
2022/08/27 07:28:36;;;;;;;4.75;2.00;;;;;;;;;;5113001;28;20492;-81
2022/08/27 07:31:03;;;;;;;8.13;1.80;;;;;;;;;;5113813;28;20023;-81
2022/08/27 07:33:29;;;;;;;3.72;1.80;;;;;;;;;;5115662;28;20035;-81
2022/08/27 07:35:55;;;;;;;5.22;1.88;;;;;;;;;;5130161;28;20027;-81
2022/08/27 07:38:21;;;;;;;5.78;1.67;;;;;;;;;;5133717;28;20026;-81
2022/08/27 07:40:48;;;;;;;7.43;1.92;;;;;;;;;;5124549;28;20369;-81
2022/08/27 07:46:00;;;;;;;3.97;1.30;;;;;;;;;;5128610;28;20088;-79
2022/08/27 07:48:28;;;;;;;6.80;1.45;;;;;;;;;;5131497;27;20053;-79
2022/08/27 07:50:54;;;;;;;5.82;1.48;;;;;;;;;;5096769;28;20505;-79
2022/08/27 07:53:20;;;;;;;3.60;1.10;;;;;;;;;;5103642;28;20032;-79
2022/08/27 07:55:47;;;;;;;6.60;1.20;;;;;;;;;;5132255;27;20015;-78
2022/08/27 07:58:14;;;;;;;5.88;1.67;;;;;;;;;;5130889;27;20050;-77
2022/08/27 08:00:42;;;;;;;5.30;0.98;;;;;;;;;;5115902;27;20478;-79
2022/08/27 08:03:08;;;;;;;3.75;0.90;;;;;;;;;;5077413;28;20449;-77
2022/08/27 08:05:34;;;;;;;4.95;0.90;;;;;;;;;;5095531;28;20484;-80
2022/08/27 08:08:00;;;;;;;2.65;0.70;;;;;;;;;;5077418;28;20028;-78
2022/08/27 08:10:26;;;;;;;6.07;1.20;;;;;;;;;;5076883;28;20056;-81
2022/08/27 08:12:52;;;;;;;3.85;1.13;;;;;;;;;;5095564;28;20078;-81
2022/08/27 08:15:19;;;;;;;3.70;1.40;;;;;;;;;;5077277;28;20043;-78
2022/08/27 08:17:45;;;;;;;7.55;1.40;;;;;;;;;;5095357;28;20020;-78
2022/08/27 08:20:12;;;;;;;4.07;0.98;;;;;;;;;;5095733;28;20039;-79
2022/08/27 08:22:38;;;;;;;3.30;1.20;;;;;;;;;;5094169;28;20073;-80
2022/08/27 08:25:04;;;;;;;2.78;0.80;;;;;;;;;;5059844;28;20016;-79
2022/08/27 08:27:31;;;;;;;5.05;0.80;;;;;;;;;;5094978;28;20020;-79
2022/08/27 08:29:58;;;;;;;3.78;0.80;;;;;;;;;;5094995;28;20023;-79
2022/08/27 08:32:24;;;;;;;4.20;1.02;;;;;;;;;;5076332;28;20024;-82
2022/08/27 08:34:50;;;;;;;1.85;0.80;;;;;;;;;;5095552;28;20028;-83
2022/08/27 08:37:16;;;;;;;4.50;1.10;;;;;;;;;;5077296;28;20073;-78
2022/08/27 08:39:42;;;;;;;3.63;0.70;;;;;;;;;;5095659;28;20066;-82
2022/08/27 08:42:21;;;;;;;5.90;1.52;;;;;;;;;;5095424;28;20031;-86
2022/08/27 08:44:49;;;;;;;3.60;1.00;;;;;;;;;;5091122;28;20039;-82
2022/08/27 08:47:19;;;;;;;1.58;0.80;;;;;;;;;;5094263;28;20354;-82
2022/08/27 08:49:55;;;;;;;3.53;0.77;;;;;;;;;;5095659;28;20465;-88
2022/08/27 08:52:21;;;;;;;4.93;0.80;;;;;;;;;;5095674;28;20538;-88
2022/08/27 08:54:49;;;;;;;7.05;1.00;;;;;;;;;;5094962;28;20103;-85
2022/08/27 08:57:30;;;;;;;5.03;1.67;;;;;;;;;;5077120;28;20023;-84
2022/08/27 09:00:01;;;;;;;2.70;0.80;;;;;;;;;;5095206;28;20509;-84
2022/08/27 09:02:27;;;;;;;6.82;1.23;;;;;;;;;;5115345;28;20020;-87
2022/08/27 09:04:53;;;;;;;3.35;0.82;;;;;;;;;;5126465;27;20488;-89
2022/08/27 09:07:38;;;;;;;5.80;1.20;;;;;;;;;;5117226;27;20087;-84
2022/08/27 09:10:22;;;;;;;8.60;1.15;;;;;;;;;;5121734;27;20477;-83
2022/08/27 09:12:48;;;;;;;2.22;0.82;;;;;;;;;;5107446;27;20027;-82
2022/08/27 09:15:23;;;;;;;4.32;1.30;;;;;;;;;;5133765;27;20062;-82
2022/08/27 09:17:50;;;;;;;3.70;0.95;;;;;;;;;;5099569;28;20016;-83
2022/08/27 09:20:20;;;;;;;4.45;1.13;;;;;;;;;;5120989;27;20020;-82
2022/08/27 09:23:01;;;;;;;3.63;1.08;;;;;;;;;;5105395;27;20469;-83
2022/08/27 09:25:30;;;;;;;3.53;0.82;;;;;;;;;;5122786;27;20028;-82
2022/08/27 09:27:58;;;;;;;4.28;1.10;;;;;;;;;;5117613;27;20110;-83
2022/08/27 09:30:27;;;;;;;4.22;1.17;;;;;;;;;;5124450;27;20027;-82
2022/08/27 09:32:58;;;;;;;4.68;0.93;;;;;;;;;;5126927;27;20027;-81
2022/08/27 09:35:25;;;;;;;3.72;0.90;;;;;;;;;;5123006;27;20141;-81
2022/08/27 09:37:53;;;;;;;3.72;1.08;;;;;;;;;;5118986;27;20020;-81
2022/08/27 09:40:30;;;;;;;3.28;0.75;;;;;;;;;;5126258;27;20023;-81
2022/08/27 09:42:57;;;;;;;4.05;0.90;;;;;;;;;;5128688;27;20030;-81
2022/08/27 09:45:28;;;;;;;6.25;1.00;;;;;;;;;;5101642;27;20019;-81
2022/08/27 09:48:09;;;;;;;3.10;0.80;;;;;;;;;;5131069;27;20345;-82
2022/08/27 09:50:41;;;;;;;5.50;0.80;;;;;;;;;;5100272;28;20354;-82
2022/08/27 09:53:07;;;;;;;;;;;;;;;;;;5122045;27;20031;-83
2022/08/27 09:55:43;;;;;;;5.28;1.10;;;;;;;;;;5129751;27;19958;-84
2022/08/27 09:58:16;;;;;;;5.10;0.70;;;;;;;;;;5134906;27;20019;-84
2022/08/27 10:00:42;;;;;;;5.03;1.00;;;;;;;;;;5134957;27;20067;-86
2022/08/27 10:03:10;;;;;;;3.45;0.80;;;;;;;;;;5116187;27;20030;-86
2022/08/27 10:05:56;;;;;;;2.35;0.88;;;;;;;;;;5135318;27;20023;-86
2022/08/27 10:08:34;;;;;;;2.40;0.80;;;;;;;;;;5135266;27;20110;-86
2022/08/27 10:11:06;;;;;;;6.53;0.95;;;;;;;;;;5134920;27;20027;-85
2022/08/27 10:13:55;;;;;;;5.05;0.93;;;;;;;;;;5135186;27;20421;-86
2022/08/27 10:16:27;;;;;;;5.25;1.10;;;;;;;;;;5087506;27;20047;-85
2022/08/27 10:18:53;;;;;;;4.80;0.98;;;;;;;;;;5116403;27;20062;-85
2022/08/27 10:21:40;;;;;;;3.83;0.80;;;;;;;;;;5135724;27;20027;-85
2022/08/27 10:24:19;;;;;;;3.78;1.30;;;;;;;;;;5136423;27;20485;-85
2022/08/27 10:26:51;;;;;;;3.92;1.10;;;;;;;;;;5138437;27;20031;-84
2022/08/27 10:29:17;;;;;;;4.75;1.50;;;;;;;;;;5138180;27;20046;-85
2022/08/27 10:31:54;;;;;;;3.00;0.88;;;;;;;;;;5136441;27;20440;-83
2022/08/27 10:34:23;;;;;;;6.50;1.30;;;;;;;;;;5134454;27;20031;-86
2022/08/27 10:37:04;;;;;;;3.88;1.00;;;;;;;;;;5115443;27;20075;-84
2022/08/27 10:39:40;;;;;;;4.95;1.10;;;;;;;;;;5134141;27;20019;-86
2022/08/27 10:42:06;;;;;;;8.32;0.95;;;;;;;;;;5114600;27;20448;-83
2022/08/27 10:44:41;;;;;;;5.40;0.98;;;;;;;;;;5114896;27;20110;-84
2022/08/27 10:47:10;;;;;;;4.60;0.90;;;;;;;;;;5102096;28;20069;-84
2022/08/27 10:50:06;;;;;;;4.78;0.90;;;;;;;;;;5100341;28;20019;-84
2022/08/27 10:52:42;;;;;;;3.60;1.20;;;;;;;;;;5090947;27;20031;-84
2022/08/27 10:55:14;;;;;;;7.60;0.95;;;;;;;;;;5126296;27;20491;-85
2022/08/27 10:57:59;;;;;;;4.47;0.85;;;;;;;;;;5114054;28;20464;-84
2022/08/27 11:00:28;;;;;;;3.75;0.90;;;;;;;;;;5109419;28;20058;-84
2022/08/27 11:03:06;;;;;;;5.80;0.90;;;;;;;;;;5098810;28;20016;-85
2022/08/27 11:05:36;;;;;;;1.85;0.73;;;;;;;;;;5081106;28;20034;-84
2022/08/27 11:08:22;;;;;;;4.55;0.90;;;;;;;;;;5076657;28;20078;-84
2022/08/27 11:10:51;;;;;;;7.43;1.00;;;;;;;;;;5093702;28;20028;-84
2022/08/27 11:13:20;;;;;;;6.28;1.10;;;;;;;;;;5075071;28;20111;-84
2022/08/27 11:15:47;;;;;;;3.03;1.15;;;;;;;;;;5075605;28;20453;-84
2022/08/27 11:18:24;;;;;;;5.50;1.00;;;;;;;;;;5075827;28;20475;-84
2022/08/27 11:20:59;;;;;;;3.45;1.00;;;;;;;;;;5092721;28;20020;-84
2022/08/27 11:23:30;;;;;;;6.53;0.80;;;;;;;;;;5072442;28;20082;-84
2022/08/27 11:25:57;;;;;;;4.85;1.02;;;;;;;;;;5072308;28;20037;-84
2022/08/27 11:28:30;;;;;;;4.07;1.05;;;;;;;;;;5070146;28;20024;-84
2022/08/27 11:31:05;;;;;;;3.58;1.13;;;;;;;;;;5096391;28;20074;-84
2022/08/27 11:33:31;;;;;;;4.65;1.02;;;;;;;;;;5096515;28;20032;-84
2022/08/27 11:36:00;;;;;;;5.65;1.00;;;;;;;;;;5096340;28;20094;-83
2022/08/27 11:38:31;;;;;;;3.85;1.20;;;;;;;;;;5096555;28;20107;-84
2022/08/27 11:41:09;;;;;;;9.33;1.20;;;;;;;;;;5096605;28;20027;-85
2022/08/27 11:43:36;;;;;;;5.45;0.90;;;;;;;;;;5096440;28;20304;-84
2022/08/27 11:46:04;;;;;;;11.73;1.08;;;;;;;;;;5094933;28;20034;-86
2022/08/27 11:48:31;;;;;;;6.65;1.88;;;;;;;;;;5095768;28;20104;-84
2022/08/27 11:50:59;;;;;;;7.53;2.15;;;;;;;;;;5096003;28;20024;-84
2022/08/27 11:53:33;;;;;;;3.90;0.95;;;;;;;;;;5096068;28;20043;-84
2022/08/27 11:56:09;;;;;;;5.25;1.23;;;;;;;;;;5096432;28;20023;-85
2022/08/27 11:58:36;;;;;;;6.95;1.20;;;;;;;;;;5086844;28;20107;-85
2022/08/27 12:01:02;;;;;;;7.47;1.25;;;;;;;;;;5086751;28;20047;-85
2022/08/27 12:03:30;;;;;;;7.32;1.20;;;;;;;;;;5123845;27;20196;-85
2022/08/27 12:05:56;;;;;;;3.60;0.80;;;;;;;;;;5098087;28;20031;-85
2022/08/27 12:08:31;;;;;;;5.93;1.10;;;;;;;;;;5115616;28;20023;-84
2022/08/27 12:11:20;;;;;;;6.93;1.17;;;;;;;;;;5116097;28;20028;-85
2022/08/27 12:13:49;;;;;;;5.03;1.17;;;;;;;;;;5116649;28;20046;-85
2022/08/27 12:16:18;;;;;;;7.63;0.98;;;;;;;;;;5116027;28;20035;-85
2022/08/27 12:18:49;;;;;;;5.63;0.95;;;;;;;;;;5115909;28;20378;-85
2022/08/27 12:21:30;;;;;;;5.35;1.48;;;;;;;;;;5115702;28;20051;-84
2022/08/27 12:24:11;;;;;;;7.20;1.00;;;;;;;;;;5097077;28;20024;-85
2022/08/27 12:26:40;;;;;;;4.90;0.97;;;;;;;;;;5115911;28;20020;-84
2022/08/27 12:29:24;;;;;;;6.22;1.00;;;;;;;;;;5114102;28;20574;-86
2022/08/27 12:31:55;;;;;;;8.00;1.08;;;;;;;;;;5116227;28;20024;-85
2022/08/27 12:34:23;;;;;;;4.93;0.90;;;;;;;;;;5097432;28;20046;-84
2022/08/27 12:36:50;;;;;;;4.35;1.02;;;;;;;;;;5097304;28;20388;-85
2022/08/27 12:39:17;;;;;;;3.85;0.60;;;;;;;;;;5115659;28;20460;-85
2022/08/27 12:41:45;;;;;;;5.57;1.10;;;;;;;;;;5114826;28;20436;-84
2022/08/27 12:44:13;;;;;;;5.30;0.98;;;;;;;;;;5115646;28;20024;-84
2022/08/27 12:46:49;;;;;;;9.02;1.13;;;;;;;;;;5115612;28;20550;-85
2022/08/27 12:49:20;;;;;;;3.63;0.98;;;;;;;;;;5096698;28;20488;-85
2022/08/27 12:51:47;;;;;;;6.03;1.20;;;;;;;;;;5115483;28;20052;-85
2022/08/27 12:54:22;;;;;;;4.45;0.95;;;;;;;;;;5114855;28;20444;-85
2022/08/27 12:57:11;;;;;;;13.35;1.83;;;;;;;;;;5115354;28;20032;-85
2022/08/27 12:59:53;;;;;;;5.60;0.90;;;;;;;;;;5104467;28;20058;-84
2022/08/27 13:02:28;;;;;;;5.15;0.85;;;;;;;;;;5094937;28;20052;-85
2022/08/27 13:04:54;;;;;;;3.55;0.82;;;;;;;;;;5094599;28;20096;-85
2022/08/27 13:07:27;;;;;;;6.85;0.90;;;;;;;;;;5094847;28;20035;-84
2022/08/27 13:09:53;;;;;;;5.65;1.08;;;;;;;;;;5094866;28;20492;-85
2022/08/27 13:12:19;;;;;;;4.00;0.68;;;;;;;;;;5094838;28;20024;-85
2022/08/27 13:14:45;;;;;;;6.80;1.05;;;;;;;;;;5094576;28;20024;-85
2022/08/27 13:17:19;;;;;;;4.93;1.10;;;;;;;;;;5094853;28;20027;-85
2022/08/27 13:19:52;;;;;;;8.02;1.20;;;;;;;;;;5094658;28;20038;-84
2022/08/27 13:22:38;;;;;;;5.30;1.08;;;;;;;;;;5094512;28;20016;-85
2022/08/27 13:25:04;;;;;;;6.40;1.20;;;;;;;;;;5094823;28;20024;-86
2022/08/27 13:27:33;;;;;;;4.45;1.05;;;;;;;;;;5094677;28;20092;-82
2022/08/27 13:30:01;;;;;;;6.38;1.30;;;;;;;;;;5105125;28;20024;-86
2022/08/27 13:32:29;;;;;;;4.57;1.23;;;;;;;;;;5096656;28;20068;-82
2022/08/27 13:34:57;;;;;;;5.40;1.38;;;;;;;;;;5115096;28;20028;-82
2022/08/27 13:37:26;;;;;;;6.57;1.17;;;;;;;;;;5115029;28;20012;-82
2022/08/27 13:39:56;;;;;;;8.32;1.30;;;;;;;;;;5114797;28;20159;-82
2022/08/27 13:42:23;;;;;;;5.72;1.13;;;;;;;;;;5096380;28;20020;-82
2022/08/27 13:44:50;;;;;;;7.60;1.42;;;;;;;;;;5115116;28;20072;-82
2022/08/27 13:47:20;;;;;;;6.38;1.70;;;;;;;;;;5108958;28;20216;-82
2022/08/27 13:49:46;;;;;;;6.63;1.42;;;;;;;;;;5081119;28;20028;-81
2022/08/27 13:52:12;;;;;;;7.50;1.42;;;;;;;;;;5099921;28;20024;-82
2022/08/27 13:54:38;;;;;;;5.00;1.20;;;;;;;;;;5095645;28;20039;-82
2022/08/27 13:57:07;;;;;;;8.40;1.10;;;;;;;;;;5095408;28;20024;-82
2022/08/27 13:59:34;;;;;;;6.50;1.00;;;;;;;;;;5076688;28;20368;-82
2022/08/27 14:02:02;;;;;;;3.92;1.02;;;;;;;;;;5093862;28;20370;-82
2022/08/27 14:04:37;;;;;;;5.85;1.45;;;;;;;;;;5115177;28;20016;-83
2022/08/27 14:07:08;;;;;;;8.63;1.10;;;;;;;;;;5097718;28;20020;-83
2022/08/27 14:09:40;;;;;;;6.25;1.20;;;;;;;;;;5098503;28;20016;-83
2022/08/27 14:12:09;;;;;;;4.85;1.10;;;;;;;;;;5093955;28;20090;-83
2022/08/27 14:14:37;;;;;;;6.45;1.15;;;;;;;;;;5096046;28;20027;-84
2022/08/27 14:17:03;;;;;;;7.03;1.13;;;;;;;;;;5113870;28;20027;-84
2022/08/27 14:19:31;;;;;;;6.35;1.10;;;;;;;;;;5114283;28;20024;-82
2022/08/27 14:21:57;;;;;;;7.80;1.00;;;;;;;;;;5111984;28;20016;-82
2022/08/27 14:24:23;;;;;;;4.90;0.90;;;;;;;;;;5081936;28;20016;-83
2022/08/27 14:26:51;;;;;;;3.42;0.98;;;;;;;;;;5113004;28;20437;-83
2022/08/27 14:29:17;;;;;;;4.38;0.88;;;;;;;;;;5117104;27;20016;-82
2022/08/27 14:31:43;;;;;;;3.65;1.27;;;;;;;;;;5095421;28;20019;-82
2022/08/27 14:34:09;;;;;;;7.70;1.17;;;;;;;;;;5099188;28;20481;-82
2022/08/27 14:36:37;;;;;;;6.78;0.85;;;;;;;;;;5113632;28;20053;-82
2022/08/27 14:39:04;;;;;;;8.32;0.98;;;;;;;;;;5114378;27;20680;-78
2022/08/27 14:41:31;;;;;;;5.90;0.88;;;;;;;;;;5110242;28;20028;-78
2022/08/27 14:43:57;;;;;;;2.42;0.70;;;;;;;;;;5113869;27;20444;-78
2022/08/27 14:46:25;;;;;;;2.90;0.75;;;;;;;;;;5100398;28;20031;-78
2022/08/27 14:48:51;;;;;;;11.32;1.00;;;;;;;;;;5122168;27;20054;-77
2022/08/27 14:51:20;;;;;;;6.15;0.95;;;;;;;;;;5132007;27;20031;-76
2022/08/27 14:53:46;;;;;;;3.63;1.27;;;;;;;;;;5132565;27;20024;-79
2022/08/27 14:56:12;;;;;;;4.88;0.75;;;;;;;;;;5133849;27;20027;-79